Time;durP1;ratioP1;P1;durP2;ratioP2;P2;SDS_P1;SDS_P2;PMS_P1;PMS_P2;Temp;Humidity;BMP_temperature;BMP_pressure;BME280_temperature;BME280_humidity;BME280_pressure;Samples;Min_cycle;Max_cycle;Signal;HPM_P1;HPM_P2
2022/09/29 00:00:27;;;;;;;4.80;4.40;;;;;20.50;98892.00;;;;2052705;28;20216;-73
2022/09/29 00:01:27;;;;;;;5.43;4.03;;;;;20.50;98889.00;;;;2048446;28;20227;-74
2022/09/29 00:02:27;;;;;;;5.27;4.00;;;;;20.50;98899.00;;;;2051830;28;20235;-73
2022/09/29 00:03:28;;;;;;;4.17;3.77;;;;;20.50;98888.00;;;;2052020;28;20570;-74
2022/09/29 00:04:28;;;;;;;4.63;3.90;;;;;20.50;98892.00;;;;2054919;28;20792;-73
2022/09/29 00:05:29;;;;;;;5.90;4.33;;;;;20.40;98895.00;;;;2048716;28;20737;-73
2022/09/29 00:06:29;;;;;;;5.20;4.60;;;;;20.40;98896.00;;;;2052331;28;20553;-72
2022/09/29 00:07:31;;;;;;;4.00;3.60;;;;;20.50;98900.00;;;;2052483;28;20243;-73
2022/09/29 00:08:31;;;;;;;4.60;4.20;;;;;20.50;98911.00;;;;2051833;28;20215;-73
2022/09/29 00:09:31;;;;;;;5.27;4.60;;;;;20.50;98894.00;;;;2052331;28;20687;-73
2022/09/29 00:10:32;;;;;;;4.50;4.10;;;;;20.50;98896.00;;;;2052327;28;20220;-74
2022/09/29 00:11:32;;;;;;;4.83;4.07;;;;;20.50;98894.00;;;;2052323;28;20239;-73
2022/09/29 00:12:33;;;;;;;5.13;4.20;;;;;20.40;98901.00;;;;2052125;28;20216;-73
2022/09/29 00:13:33;;;;;;;4.80;4.40;;;;;20.40;98905.00;;;;2052812;28;20204;-73
2022/09/29 00:14:33;;;;;;;4.60;4.20;;;;;20.50;98894.00;;;;2052921;28;20211;-70
2022/09/29 00:15:34;;;;;;;4.70;4.23;;;;;20.40;98899.00;;;;2053034;28;20215;-72
2022/09/29 00:16:34;;;;;;;5.00;4.60;;;;;20.40;98907.00;;;;2052868;28;20218;-73
2022/09/29 00:17:35;;;;;;;4.53;4.13;;;;;20.40;98908.00;;;;2052074;28;20315;-74
2022/09/29 00:18:35;;;;;;;5.20;4.27;;;;;20.40;98903.00;;;;2052052;28;20218;-74
2022/09/29 00:19:35;;;;;;;4.80;4.30;;;;;20.40;98908.00;;;;2053087;28;20227;-74
2022/09/29 00:20:36;;;;;;;4.50;4.10;;;;;20.40;98906.00;;;;2052524;28;20306;-74
2022/09/29 00:21:36;;;;;;;4.87;4.37;;;;;20.40;98895.00;;;;2052567;28;20220;-73
2022/09/29 00:22:36;;;;;;;4.60;4.20;;;;;20.40;98894.00;;;;2051581;28;20222;-73
2022/09/29 00:23:37;;;;;;;6.30;4.50;;;;;20.40;98897.00;;;;2051750;28;20220;-73
2022/09/29 00:24:37;;;;;;;4.77;4.37;;;;;20.40;98911.00;;;;2052043;28;20359;-74
2022/09/29 00:25:37;;;;;;;5.00;4.50;;;;;20.40;98897.00;;;;2051465;28;20589;-74
2022/09/29 00:26:38;;;;;;;3.93;3.50;;;;;20.40;98901.00;;;;2051477;28;20573;-73
2022/09/29 00:27:38;;;;;;;4.83;4.43;;;;;20.40;98896.00;;;;2051673;28;20699;-74
2022/09/29 00:28:39;;;;;;;4.43;4.00;;;;;20.40;98904.00;;;;2051221;28;20278;-73
2022/09/29 00:29:40;;;;;;;4.40;4.00;;;;;20.40;98897.00;;;;2051628;28;20295;-73
2022/09/29 00:30:40;;;;;;;5.27;4.20;;;;;20.40;98892.00;;;;2051698;28;20203;-74
2022/09/29 00:31:41;;;;;;;4.70;3.83;;;;;20.40;98892.00;;;;2050658;28;20258;-73
2022/09/29 00:32:41;;;;;;;3.80;3.50;;;;;20.40;98899.00;;;;2054882;28;20610;-73
2022/09/29 00:33:41;;;;;;;4.60;3.60;;;;;20.40;98901.00;;;;2055520;28;20207;-73
2022/09/29 00:34:42;;;;;;;5.03;4.33;;;;;20.30;98902.00;;;;2052457;28;20220;-74
2022/09/29 00:35:42;;;;;;;4.93;4.30;;;;;20.30;98897.00;;;;2052733;28;20251;-74
2022/09/29 00:36:42;;;;;;;4.73;4.23;;;;;20.40;98905.00;;;;2052293;28;20688;-74
2022/09/29 00:37:43;;;;;;;3.93;3.50;;;;;20.30;98857.00;;;;2052572;28;20243;-73
2022/09/29 00:38:45;;;;;;;4.37;3.97;;;;;20.30;98898.00;;;;2052311;28;20239;-72
2022/09/29 00:39:46;;;;;;;4.72;4.32;;;;;20.30;98894.00;;;;2051608;28;20451;-74
2022/09/29 00:40:46;;;;;;;6.20;4.37;;;;;20.30;98897.00;;;;2051551;28;20635;-74
2022/09/29 00:41:46;;;;;;;4.33;3.93;;;;;20.30;98892.00;;;;2051399;28;20240;-74
2022/09/29 00:42:47;;;;;;;3.90;3.30;;;;;20.30;98897.00;;;;2052343;28;20368;-74
2022/09/29 00:43:56;;;;;;;5.87;4.23;;;;;20.30;98891.00;;;;2052226;28;20220;-74
2022/09/29 00:45:26;;;;;;;4.57;3.85;;;;;20.30;98893.00;;;;2052147;28;20697;-74
2022/09/29 00:46:35;;;;;;;4.13;3.72;;;;;20.30;98895.00;;;;2040138;28;20633;-74
2022/09/29 00:47:36;;;;;;;4.40;3.97;;;;;20.30;98899.00;;;;2051492;28;20223;-73
2022/09/29 00:48:36;;;;;;;5.87;3.80;;;;;20.30;98890.00;;;;2051497;28;20239;-73
2022/09/29 00:49:51;;;;;;;4.70;4.10;;;;;20.30;98891.00;;;;2050428;28;20294;-73
2022/09/29 00:50:51;;;;;;;5.15;3.80;;;;;20.30;98900.00;;;;2050741;28;20302;-75
2022/09/29 00:51:55;;;;;;;5.90;4.03;;;;;20.30;98881.00;;;;2051187;28;20220;-74
2022/09/29 00:52:56;;;;;;;4.00;3.60;;;;;20.30;98895.00;;;;2049064;28;20247;-74
2022/09/29 00:53:57;;;;;;;3.88;3.47;;;;;20.30;98893.00;;;;2050842;28;20238;-74
2022/09/29 00:54:58;;;;;;;5.50;3.80;;;;;20.30;98890.00;;;;2051312;28;20692;-74
2022/09/29 00:56:01;;;;;;;7.30;3.67;;;;;20.30;98899.00;;;;2052317;28;20223;-74
2022/09/29 00:57:02;;;;;;;4.25;3.85;;;;;20.30;98886.00;;;;2051770;28;20215;-74
2022/09/29 00:58:09;;;;;;;3.90;3.50;;;;;20.20;98903.00;;;;2043753;29;20877;-74
2022/09/29 00:59:13;;;;;;;7.00;4.00;;;;;20.20;98904.00;;;;2035590;29;20588;-74
2022/09/29 01:00:13;;;;;;;4.13;3.72;;;;;20.20;98889.00;;;;2044142;28;20311;-74
2022/09/29 01:01:14;;;;;;;6.67;4.10;;;;;20.30;98891.00;;;;2058745;28;20586;-74
2022/09/29 01:02:14;;;;;;;4.10;3.37;;;;;20.30;98889.00;;;;2046565;29;20204;-74
2022/09/29 01:03:18;;;;;;;4.50;3.63;;;;;20.30;98859.00;;;;2030976;29;20234;-74
2022/09/29 01:04:20;;;;;;;4.47;3.80;;;;;20.20;98891.00;;;;2036272;28;20793;-74
2022/09/29 01:05:26;;;;;;;3.47;3.17;;;;;20.20;98895.00;;;;2042994;29;20715;-74
2022/09/29 01:06:29;;;;;;;4.20;3.83;;;;;20.20;98879.00;;;;2045892;29;20227;-74
2022/09/29 01:07:29;;;;;;;4.20;3.90;;;;;20.20;98895.00;;;;2050773;28;20247;-73
2022/09/29 01:08:38;;;;;;;3.90;3.50;;;;;20.20;98884.00;;;;2051169;28;20216;-74
2022/09/29 01:09:38;;;;;;;3.95;3.53;;;;;20.20;98888.00;;;;2050496;28;20322;-74
2022/09/29 01:10:39;;;;;;;4.10;3.70;;;;;20.20;98889.00;;;;2051017;28;20691;-74
2022/09/29 01:11:41;;;;;;;4.53;3.80;;;;;20.30;98890.00;;;;2049996;28;20241;-74
2022/09/29 01:12:42;;;;;;;3.97;3.60;;;;;20.20;98898.00;;;;2050466;28;20242;-73
2022/09/29 01:13:43;;;;;;;3.60;3.30;;;;;20.20;98901.00;;;;2050395;28;20731;-74
2022/09/29 01:14:43;;;;;;;3.63;3.13;;;;;20.20;98872.00;;;;2050015;28;20215;-75
2022/09/29 01:15:43;;;;;;;3.87;3.57;;;;;20.20;98900.00;;;;2050579;28;20220;-75
2022/09/29 01:16:44;;;;;;;5.23;4.00;;;;;20.20;98887.00;;;;2051432;28;20246;-74
2022/09/29 01:17:46;;;;;;;3.93;3.53;;;;;20.20;98892.00;;;;2052292;28;20905;-73
2022/09/29 01:18:46;;;;;;;3.30;3.00;;;;;20.20;98892.00;;;;2051979;28;20493;-73
2022/09/29 01:19:51;;;;;;;3.77;3.10;;;;;20.20;98883.00;;;;2050714;28;20271;-74
2022/09/29 01:21:00;;;;;;;5.40;4.25;;;;;20.20;98886.00;;;;2049101;28;20227;-74
2022/09/29 01:22:30;;;;;;;3.92;3.53;;;;;20.20;98891.00;;;;2052815;28;20226;-74
2022/09/29 01:23:48;;;;;;;3.85;3.47;;;;;20.20;98898.00;;;;2045178;28;20213;-74
2022/09/29 01:25:22;;;;;;;4.05;3.40;;;;;20.20;98894.00;;;;2051042;28;20220;-74
2022/09/29 01:26:50;;;;;;;3.85;3.25;;;;;20.20;98889.00;;;;2045453;29;20208;-74
2022/09/29 01:28:09;;;;;;;4.80;3.60;;;;;20.20;98895.00;;;;2048375;28;20248;-74
2022/09/29 01:29:27;;;;;;;4.18;3.58;;;;;20.20;98891.00;;;;2051240;28;20211;-74
2022/09/29 01:30:51;;;;;;;4.32;3.30;;;;;20.20;98899.00;;;;2041448;28;20251;-75
2022/09/29 01:32:10;;;;;;;3.42;3.10;;;;;20.20;98900.00;;;;2042067;29;20216;-74
2022/09/29 01:33:38;;;;;;;3.33;3.00;;;;;20.10;98896.00;;;;2044583;28;20676;-74
2022/09/29 01:35:12;;;;;;;3.72;3.38;;;;;20.10;98897.00;;;;2042718;28;20227;-74
2022/09/29 01:36:30;;;;;;;4.18;3.78;;;;;20.10;98894.00;;;;2050169;28;20315;-74
2022/09/29 01:37:55;;;;;;;4.13;3.72;;;;;20.10;98899.00;;;;2052234;28;20225;-74
2022/09/29 01:39:04;;;;;;;2.97;2.78;;;;;20.10;98896.00;;;;2050018;28;20708;-74
2022/09/29 01:40:06;;;;;;;3.90;3.60;;;;;20.10;98899.00;;;;2049983;28;20235;-75
2022/09/29 01:41:15;;;;;;;5.28;3.13;;;;;20.10;98896.00;;;;2049926;28;20211;-75
2022/09/29 01:42:18;;;;;;;3.70;3.40;;;;;20.10;98892.00;;;;2045479;29;20302;-74
2022/09/29 01:43:56;;;;;;;3.28;2.97;;;;;20.10;98891.00;;;;2039287;28;20221;-74
2022/09/29 01:45:21;;;;;;;3.10;2.90;;;;;20.10;98876.00;;;;2050006;28;20908;-75
2022/09/29 01:46:24;;;;;;;3.53;3.22;;;;;20.10;98897.00;;;;2050128;28;20215;-74
2022/09/29 01:47:27;;;;;;;3.80;3.50;;;;;20.10;98901.00;;;;2050550;28;20227;-74
2022/09/29 01:48:30;;;;;;;3.25;2.95;;;;;20.10;98908.00;;;;2042440;29;20216;-74
2022/09/29 01:49:32;;;;;;;3.50;3.20;;;;;20.10;98904.00;;;;2045550;28;20208;-74
2022/09/29 01:50:38;;;;;;;3.83;3.53;;;;;20.10;98868.00;;;;2050273;28;20754;-74
2022/09/29 01:51:55;;;;;;;3.33;3.13;;;;;20.10;98891.00;;;;2050579;28;20755;-74
2022/09/29 01:52:59;;;;;;;2.70;2.50;;;;;20.10;98903.00;;;;2050758;28;20254;-74
2022/09/29 01:54:01;;;;;;;3.55;3.25;;;;;20.10;98900.00;;;;2050506;28;20223;-74
2022/09/29 01:55:08;;;;;;;3.50;3.20;;;;;20.10;98907.00;;;;2050293;28;20223;-74
2022/09/29 01:56:13;;;;;;;2.60;2.40;;;;;20.10;98885.00;;;;2043425;28;20212;-74
2022/09/29 01:57:20;;;;;;;3.42;3.13;;;;;20.10;98907.00;;;;2039261;29;20625;-74
2022/09/29 01:58:24;;;;;;;3.63;3.25;;;;;20.10;98902.00;;;;2032692;29;20218;-75
2022/09/29 01:59:33;;;;;;;3.25;2.95;;;;;20.10;98919.00;;;;2039373;29;20220;-74
2022/09/29 02:00:37;;;;;;;3.55;3.10;;;;;20.00;98883.00;;;;2029921;29;20641;-74
2022/09/29 02:01:38;;;;;;;3.45;3.15;;;;;20.00;98904.00;;;;2040622;28;20231;-73
2022/09/29 02:03:12;;;;;;;3.42;3.00;;;;;20.10;98903.00;;;;2046364;29;20227;-74
2022/09/29 02:04:15;;;;;;;3.03;2.72;;;;;20.00;98898.00;;;;2025225;29;20301;-75
2022/09/29 02:05:28;;;;;;;2.92;2.72;;;;;20.00;98899.00;;;;2038599;29;20283;-74
2022/09/29 02:06:35;;;;;;;3.55;3.25;;;;;20.00;98903.00;;;;2042273;28;20264;-74
2022/09/29 02:07:37;;;;;;;2.97;2.70;;;;;20.00;98897.00;;;;2050510;28;20686;-74
2022/09/29 02:08:41;;;;;;;4.10;3.30;;;;;20.00;98907.00;;;;2050193;28;20365;-74
2022/09/29 02:09:43;;;;;;;3.40;3.10;;;;;20.00;98906.00;;;;2050669;28;20212;-74
2022/09/29 02:11:01;;;;;;;2.90;2.70;;;;;20.00;98903.00;;;;2051437;28;20232;-74
2022/09/29 02:12:01;;;;;;;3.55;2.83;;;;;20.10;98905.00;;;;2051119;28;20219;-74
2022/09/29 02:13:02;;;;;;;5.93;2.73;;;;;20.10;98884.00;;;;2051134;28;20209;-75
2022/09/29 02:14:19;;;;;;;3.40;3.10;;;;;20.00;98905.00;;;;2051317;28;20293;-74
2022/09/29 02:15:28;;;;;;;3.03;2.72;;;;;20.00;98901.00;;;;2046366;29;20243;-74
2022/09/29 02:16:30;;;;;;;5.40;2.67;;;;;20.00;98881.00;;;;2044582;28;20200;-74
2022/09/29 02:17:32;;;;;;;3.45;3.15;;;;;20.00;98901.00;;;;2051079;28;20218;-74
2022/09/29 02:18:39;;;;;;;4.15;3.10;;;;;20.00;98910.00;;;;2043475;28;20247;-74
2022/09/29 02:19:39;;;;;;;3.38;2.72;;;;;20.00;98911.00;;;;2050192;28;20223;-74
2022/09/29 02:20:40;;;;;;;3.50;3.20;;;;;20.00;98916.00;;;;2050335;28;20276;-74
2022/09/29 02:21:41;;;;;;;3.03;2.70;;;;;20.00;98879.00;;;;2050368;28;20227;-74
2022/09/29 02:22:41;;;;;;;3.30;3.00;;;;;20.00;98862.00;;;;2045350;29;20267;-73
2022/09/29 02:23:41;;;;;;;2.93;2.63;;;;;20.00;98915.00;;;;2046751;28;20855;-74
2022/09/29 02:24:42;;;;;;;2.60;2.40;;;;;20.00;98908.00;;;;2051120;28;20786;-74
2022/09/29 02:25:42;;;;;;;3.00;2.70;;;;;20.00;98879.00;;;;2051124;28;20243;-74
2022/09/29 02:26:44;;;;;;;3.53;2.23;;;;;20.00;98882.00;;;;2051123;28;20592;-74
2022/09/29 02:27:46;;;;;;;3.00;2.70;;;;;19.90;98904.00;;;;2050145;28;20219;-74
2022/09/29 02:28:46;;;;;;;3.03;2.83;;;;;19.90;98892.00;;;;2042154;29;20587;-70
2022/09/29 02:29:46;;;;;;;3.60;2.80;;;;;20.00;98905.00;;;;2034587;29;20245;-72
2022/09/29 02:30:49;;;;;;;3.33;2.80;;;;;20.00;98912.00;;;;2045660;29;20238;-72
2022/09/29 02:31:49;;;;;;;7.03;3.05;;;;;20.00;98905.00;;;;2050764;28;20223;-74
2022/09/29 02:32:49;;;;;;;3.00;2.70;;;;;20.00;98897.00;;;;2050172;28;20769;-73
2022/09/29 02:33:50;;;;;;;2.93;2.63;;;;;20.00;98908.00;;;;2050053;28;20247;-74
2022/09/29 02:34:51;;;;;;;5.37;2.60;;;;;19.90;98886.00;;;;2050986;28;20216;-74
2022/09/29 02:36:10;;;;;;;2.77;2.50;;;;;19.90;98908.00;;;;2042687;29;20243;-74
2022/09/29 02:37:35;;;;;;;2.90;2.60;;;;;19.90;98906.00;;;;2041923;28;20225;-74
2022/09/29 02:38:43;;;;;;;3.33;2.85;;;;;19.90;98881.00;;;;2044569;28;20337;-74
2022/09/29 02:40:03;;;;;;;3.30;3.10;;;;;19.90;98902.00;;;;2044009;28;20220;-74
2022/09/29 02:41:06;;;;;;;2.90;2.70;;;;;19.90;98912.00;;;;2051396;28;20659;-74
2022/09/29 02:42:28;;;;;;;3.10;2.80;;;;;19.90;98908.00;;;;2053538;28;20259;-74
2022/09/29 02:43:36;;;;;;;3.38;2.95;;;;;19.90;98903.00;;;;2050643;28;20211;-74
2022/09/29 02:44:45;;;;;;;2.67;2.47;;;;;19.90;98907.00;;;;2050098;28;20774;-75
2022/09/29 02:45:46;;;;;;;2.95;2.70;;;;;19.90;98894.00;;;;2050393;28;20225;-74
2022/09/29 02:47:26;;;;;;;2.70;2.50;;;;;19.90;98896.00;;;;2051336;28;20983;-74
2022/09/29 02:48:57;;;;;;;4.25;2.50;;;;;19.90;98900.00;;;;2041460;28;20259;-73
2022/09/29 02:50:16;;;;;;;3.00;2.80;;;;;19.90;98899.00;;;;2049633;28;20281;-74
2022/09/29 02:51:27;;;;;;;3.10;2.80;;;;;19.90;98905.00;;;;2052217;28;20310;-74
2022/09/29 02:52:30;;;;;;;2.97;2.67;;;;;19.90;98904.00;;;;2049485;28;20215;-74
2022/09/29 02:54:29;;;;;;;3.08;2.80;;;;;19.90;98904.00;;;;2049722;28;20226;-74
2022/09/29 02:55:56;;;;;;;4.03;2.60;;;;;19.90;98837.00;;;;2037215;29;20209;-74
2022/09/29 02:57:04;;;;;;;2.92;2.67;;;;;19.80;98910.00;;;;2028012;29;20238;-74
2022/09/29 02:58:25;;;;;;;5.60;3.20;;;;;19.90;98885.00;;;;2023877;29;20210;-74
2022/09/29 02:59:49;;;;;;;2.58;2.38;;;;;19.90;98905.00;;;;2016282;29;20605;-74
2022/09/29 03:00:50;;;;;;;3.63;3.00;;;;;19.90;98897.00;;;;2020959;28;20346;-74
2022/09/29 03:01:52;;;;;;;2.70;2.50;;;;;19.80;98912.00;;;;2048359;28;20670;-74
2022/09/29 03:02:52;;;;;;;2.75;2.50;;;;;19.90;98914.00;;;;2035524;28;20655;-74
2022/09/29 03:03:52;;;;;;;2.80;2.60;;;;;19.90;98911.00;;;;2051195;28;20220;-73
2022/09/29 03:04:53;;;;;;;2.67;2.47;;;;;19.90;98886.00;;;;2052694;28;20798;-73
2022/09/29 03:05:53;;;;;;;2.80;2.57;;;;;19.90;98912.00;;;;2053786;28;20227;-74
2022/09/29 03:06:53;;;;;;;2.67;2.47;;;;;19.90;98913.00;;;;2047030;29;20271;-74
2022/09/29 03:07:54;;;;;;;3.20;2.47;;;;;19.90;98931.00;;;;2053016;28;20695;-73
2022/09/29 03:08:54;;;;;;;3.20;3.00;;;;;19.80;98915.00;;;;2055560;28;20759;-73
2022/09/29 03:09:54;;;;;;;3.60;2.33;;;;;19.80;98915.00;;;;2052551;28;20219;-74
2022/09/29 03:10:55;;;;;;;4.23;2.83;;;;;19.80;98892.00;;;;2052719;28;20259;-74
2022/09/29 03:11:55;;;;;;;2.43;2.23;;;;;19.90;98922.00;;;;2052297;28;20251;-74
2022/09/29 03:12:56;;;;;;;2.70;2.33;;;;;19.90;98919.00;;;;2053814;28;20254;-73
2022/09/29 03:13:56;;;;;;;2.57;2.37;;;;;19.90;98917.00;;;;2051520;28;20220;-73
2022/09/29 03:14:57;;;;;;;2.50;2.30;;;;;19.90;98917.00;;;;2052158;28;20251;-73
2022/09/29 03:15:57;;;;;;;2.37;2.17;;;;;19.80;98907.00;;;;2052351;28;20470;-73
2022/09/29 03:16:57;;;;;;;3.10;2.50;;;;;19.80;98919.00;;;;2054099;28;20223;-73
2022/09/29 03:17:58;;;;;;;4.53;2.40;;;;;19.90;98910.00;;;;2051674;28;20223;-74
2022/09/29 03:18:58;;;;;;;3.40;3.10;;;;;19.80;98913.00;;;;2051862;28;20223;-74
2022/09/29 03:19:58;;;;;;;3.60;2.97;;;;;19.80;98910.00;;;;2050309;28;20232;-74
2022/09/29 03:20:59;;;;;;;2.63;2.43;;;;;19.80;98910.00;;;;2051794;28;20942;-74
2022/09/29 03:21:59;;;;;;;3.07;2.40;;;;;19.80;98910.00;;;;2052125;28;20220;-73
2022/09/29 03:22:59;;;;;;;2.90;2.60;;;;;19.80;98915.00;;;;2052727;28;20265;-74
2022/09/29 03:24:00;;;;;;;3.00;2.70;;;;;19.80;98911.00;;;;2052006;28;20222;-73
2022/09/29 03:25:01;;;;;;;4.23;3.00;;;;;19.80;98906.00;;;;2053679;28;20211;-73
2022/09/29 03:26:01;;;;;;;2.43;2.23;;;;;19.80;98892.00;;;;2052836;28;20386;-74
2022/09/29 03:27:02;;;;;;;4.67;2.80;;;;;19.80;98899.00;;;;2052807;28;20586;-74
2022/09/29 03:28:02;;;;;;;3.07;2.60;;;;;19.80;98908.00;;;;2052231;28;20599;-73
2022/09/29 03:29:02;;;;;;;3.30;2.57;;;;;19.80;98903.00;;;;2053093;28;20224;-74
2022/09/29 03:30:03;;;;;;;2.70;2.37;;;;;19.80;98903.00;;;;2052584;28;20239;-73
2022/09/29 03:31:08;;;;;;;4.50;2.67;;;;;19.80;98903.00;;;;2052604;28;20619;-74
2022/09/29 03:32:08;;;;;;;4.10;2.65;;;;;19.80;98908.00;;;;2051140;28;20505;-74
2022/09/29 03:33:08;;;;;;;3.10;2.80;;;;;19.80;98904.00;;;;2051446;28;20769;-74
2022/09/29 03:34:09;;;;;;;3.03;2.83;;;;;19.70;98905.00;;;;2052173;28;20714;-74
2022/09/29 03:35:09;;;;;;;2.63;2.43;;;;;19.80;98904.00;;;;2052048;28;20224;-74
2022/09/29 03:36:12;;;;;;;3.07;2.77;;;;;19.80;98908.00;;;;2053000;28;20216;-74
2022/09/29 03:37:13;;;;;;;2.75;2.55;;;;;19.80;98903.00;;;;2052993;28;20246;-74
2022/09/29 03:38:13;;;;;;;3.00;2.80;;;;;19.80;98901.00;;;;2053015;28;20216;-74
2022/09/29 03:39:13;;;;;;;2.70;2.50;;;;;19.80;98909.00;;;;2052934;28;20219;-74
2022/09/29 03:40:14;;;;;;;3.00;2.53;;;;;19.80;98870.00;;;;2050936;28;20946;-74
2022/09/29 03:41:14;;;;;;;2.60;2.40;;;;;19.80;98905.00;;;;2051543;28;20271;-74
2022/09/29 03:42:15;;;;;;;2.33;2.13;;;;;19.80;98911.00;;;;2053622;28;20211;-75
2022/09/29 03:43:15;;;;;;;2.80;2.47;;;;;19.80;98907.00;;;;2052918;28;20224;-75
2022/09/29 03:44:16;;;;;;;3.87;2.70;;;;;19.80;98906.00;;;;2052101;28;20258;-74
2022/09/29 03:45:16;;;;;;;2.90;2.70;;;;;19.70;98908.00;;;;2052145;28;20220;-74
2022/09/29 03:46:17;;;;;;;2.90;2.70;;;;;19.70;98908.00;;;;2051965;28;20219;-74
2022/09/29 03:47:17;;;;;;;3.50;2.35;;;;;19.70;98910.00;;;;2050805;28;20304;-74
2022/09/29 03:48:18;;;;;;;2.70;2.23;;;;;19.70;98903.00;;;;2052703;28;20223;-74
2022/09/29 03:49:18;;;;;;;2.93;2.60;;;;;19.70;98906.00;;;;2051831;28;20311;-73
2022/09/29 03:50:19;;;;;;;2.43;2.20;;;;;19.70;98907.00;;;;2051896;28;20244;-75
2022/09/29 03:51:19;;;;;;;3.10;2.80;;;;;19.70;98909.00;;;;2052764;28;20216;-74
2022/09/29 03:52:19;;;;;;;2.73;2.50;;;;;19.10;98899.00;;;;2052158;28;20216;-74
2022/09/29 03:53:20;;;;;;;2.70;2.50;;;;;19.70;98906.00;;;;2051712;28;20219;-75
2022/09/29 03:54:20;;;;;;;2.60;2.33;;;;;19.70;98907.00;;;;2051963;28;20323;-75
2022/09/29 03:55:20;;;;;;;3.80;2.50;;;;;19.70;98918.00;;;;2051873;28;20217;-75
2022/09/29 03:56:21;;;;;;;2.67;2.33;;;;;19.70;98912.00;;;;2052048;28;20584;-74
2022/09/29 03:57:21;;;;;;;3.20;2.47;;;;;19.70;98912.00;;;;2051816;28;20691;-75
2022/09/29 03:58:21;;;;;;;3.00;2.70;;;;;19.70;98917.00;;;;2052432;28;20219;-75
2022/09/29 03:59:22;;;;;;;2.77;2.50;;;;;19.70;98911.00;;;;2052135;28;20215;-74
2022/09/29 04:00:22;;;;;;;2.73;2.53;;;;;19.70;98918.00;;;;2051477;28;20212;-74
2022/09/29 04:01:22;;;;;;;2.57;2.37;;;;;19.70;98923.00;;;;2051080;28;20231;-74
2022/09/29 04:02:23;;;;;;;3.90;2.83;;;;;19.70;98915.00;;;;2050986;28;20215;-74
2022/09/29 04:03:23;;;;;;;2.53;2.33;;;;;19.70;98918.00;;;;2051205;28;20211;-74
2022/09/29 04:04:23;;;;;;;3.73;3.10;;;;;19.70;98916.00;;;;2051489;28;20286;-75
2022/09/29 04:05:24;;;;;;;2.50;2.30;;;;;19.70;98923.00;;;;2052019;28;20224;-74
2022/09/29 04:06:24;;;;;;;2.43;2.23;;;;;19.70;98894.00;;;;2051943;28;20306;-74
2022/09/29 04:07:24;;;;;;;3.10;2.30;;;;;19.70;98926.00;;;;2052339;28;20239;-74
2022/09/29 04:08:25;;;;;;;2.73;2.27;;;;;19.70;98922.00;;;;2052485;28;20220;-74
2022/09/29 04:09:25;;;;;;;2.83;2.63;;;;;19.70;98919.00;;;;2052412;28;20224;-75
2022/09/29 04:10:25;;;;;;;2.57;2.37;;;;;19.70;98920.00;;;;2051929;28;20207;-74
2022/09/29 04:11:26;;;;;;;3.30;2.57;;;;;19.70;98929.00;;;;2051799;28;20227;-74
2022/09/29 04:12:26;;;;;;;3.37;2.80;;;;;19.70;98922.00;;;;2051600;28;20216;-74
2022/09/29 04:13:26;;;;;;;2.47;2.27;;;;;19.70;98923.00;;;;2051589;28;20232;-75
2022/09/29 04:14:27;;;;;;;2.33;2.13;;;;;19.70;98916.00;;;;2051272;28;20219;-75
2022/09/29 04:15:27;;;;;;;3.30;2.30;;;;;19.60;98923.00;;;;2051780;28;20244;-75
2022/09/29 04:16:27;;;;;;;2.70;2.50;;;;;19.60;98925.00;;;;2055189;28;20211;-74
2022/09/29 04:17:28;;;;;;;2.60;2.40;;;;;19.70;98924.00;;;;2052585;28;20281;-75
2022/09/29 04:18:28;;;;;;;3.43;2.70;;;;;19.70;98923.00;;;;2051874;28;20711;-75
2022/09/29 04:19:28;;;;;;;3.80;2.37;;;;;19.70;98926.00;;;;2051515;28;20212;-75
2022/09/29 04:20:29;;;;;;;3.67;2.47;;;;;19.60;98927.00;;;;2051668;28;20212;-74
2022/09/29 04:21:29;;;;;;;3.00;2.70;;;;;19.60;98933.00;;;;2051572;28;20220;-74
2022/09/29 04:22:29;;;;;;;2.43;2.20;;;;;19.60;98927.00;;;;2051994;28;20685;-75
2022/09/29 04:23:30;;;;;;;3.07;2.40;;;;;19.60;98924.00;;;;2051766;28;20267;-75
2022/09/29 04:24:30;;;;;;;4.23;2.50;;;;;19.60;98924.00;;;;2051641;28;20251;-75
2022/09/29 04:25:31;;;;;;;2.80;2.60;;;;;19.60;98927.00;;;;2052539;28;20227;-75
2022/09/29 04:26:31;;;;;;;2.67;2.47;;;;;19.60;98929.00;;;;2052248;28;20212;-74
2022/09/29 04:27:31;;;;;;;2.40;2.20;;;;;19.60;98935.00;;;;2051765;28;20219;-74
2022/09/29 04:28:32;;;;;;;3.40;2.77;;;;;19.60;98931.00;;;;2051616;28;20218;-74
2022/09/29 04:29:32;;;;;;;2.70;2.27;;;;;19.60;98928.00;;;;2051714;28;20244;-74
2022/09/29 04:30:32;;;;;;;2.60;2.40;;;;;19.60;98929.00;;;;2050996;28;20247;-74
2022/09/29 04:31:33;;;;;;;3.53;2.40;;;;;19.60;98933.00;;;;2052247;28;20220;-75
2022/09/29 04:32:33;;;;;;;2.30;2.10;;;;;19.60;98944.00;;;;2052252;28;20251;-75
2022/09/29 04:33:34;;;;;;;3.70;2.53;;;;;19.60;98934.00;;;;2052524;28;20208;-74
2022/09/29 04:34:34;;;;;;;2.43;2.23;;;;;19.60;98934.00;;;;2052460;28;20226;-74
2022/09/29 04:35:34;;;;;;;2.67;2.47;;;;;19.60;98933.00;;;;2051709;28;20235;-75
2022/09/29 04:36:35;;;;;;;2.97;2.70;;;;;19.60;98911.00;;;;2047026;28;20223;-75
2022/09/29 04:37:35;;;;;;;2.70;2.50;;;;;19.60;98932.00;;;;2050951;28;20246;-75
2022/09/29 04:38:35;;;;;;;2.63;2.43;;;;;19.60;98928.00;;;;2050143;28;20738;-68
2022/09/29 04:39:36;;;;;;;2.70;2.33;;;;;19.60;98937.00;;;;2051107;28;20226;-71
2022/09/29 04:40:36;;;;;;;2.40;2.20;;;;;19.60;98937.00;;;;2051658;28;20213;-73
2022/09/29 04:41:38;;;;;;;2.90;2.70;;;;;19.60;98933.00;;;;2052135;28;20246;-73
2022/09/29 04:42:38;;;;;;;3.25;2.60;;;;;19.60;98942.00;;;;2052234;28;20238;-74
2022/09/29 04:43:39;;;;;;;2.70;2.50;;;;;19.60;98935.00;;;;2051043;28;20726;-74
2022/09/29 04:44:39;;;;;;;2.53;2.33;;;;;19.60;98925.00;;;;2050697;28;20227;-74
2022/09/29 04:45:39;;;;;;;2.43;2.23;;;;;19.60;98939.00;;;;2049665;28;20235;-75
2022/09/29 04:46:40;;;;;;;2.87;2.60;;;;;19.60;98949.00;;;;2050836;28;20227;-74
2022/09/29 04:47:40;;;;;;;2.20;2.00;;;;;19.60;98943.00;;;;2051623;28;20224;-74
2022/09/29 04:48:40;;;;;;;4.60;2.30;;;;;19.50;98931.00;;;;2052417;28;20695;-74
2022/09/29 04:49:41;;;;;;;2.77;2.50;;;;;19.50;98938.00;;;;2051904;28;20228;-75
2022/09/29 04:50:41;;;;;;;2.80;2.60;;;;;19.60;98943.00;;;;2052217;28;20406;-75
2022/09/29 04:51:42;;;;;;;2.57;2.10;;;;;19.60;98941.00;;;;2052197;28;20219;-75
2022/09/29 04:52:42;;;;;;;3.13;2.67;;;;;19.60;98952.00;;;;2051242;28;20220;-74
2022/09/29 04:53:43;;;;;;;2.97;2.60;;;;;19.50;98949.00;;;;2050784;28;20717;-73
2022/09/29 04:54:43;;;;;;;2.70;2.50;;;;;19.50;98940.00;;;;2050839;28;20225;-74
2022/09/29 04:55:43;;;;;;;3.57;2.30;;;;;19.60;98948.00;;;;2051370;28;20219;-74
2022/09/29 04:56:44;;;;;;;2.40;2.20;;;;;19.60;98947.00;;;;2052069;28;20236;-75
2022/09/29 04:57:45;;;;;;;2.60;2.40;;;;;19.60;98942.00;;;;2049686;28;20244;-74
2022/09/29 04:58:45;;;;;;;2.75;2.53;;;;;19.60;98942.00;;;;2051425;28;20687;-74
2022/09/29 04:59:45;;;;;;;2.50;2.20;;;;;19.60;98945.00;;;;2051301;28;20212;-75
2022/09/29 05:00:46;;;;;;;2.83;2.53;;;;;19.60;98939.00;;;;2050974;28;20251;-74
2022/09/29 05:01:47;;;;;;;2.93;2.13;;;;;19.50;98950.00;;;;2050607;28;20219;-75
2022/09/29 05:02:48;;;;;;;2.28;2.13;;;;;19.50;98951.00;;;;2050293;28;20938;-74
2022/09/29 05:03:48;;;;;;;2.77;2.37;;;;;19.50;98944.00;;;;2049979;28;20262;-74
2022/09/29 05:04:48;;;;;;;3.37;2.33;;;;;19.50;98945.00;;;;2051171;28;20695;-74
2022/09/29 05:05:49;;;;;;;2.60;2.40;;;;;19.50;98937.00;;;;2051313;28;20228;-74
2022/09/29 05:06:49;;;;;;;3.20;2.47;;;;;19.50;98943.00;;;;2042780;29;20232;-75
2022/09/29 05:07:49;;;;;;;2.50;2.30;;;;;19.50;98948.00;;;;2043009;29;20228;-74
2022/09/29 05:08:50;;;;;;;2.40;2.20;;;;;19.50;98946.00;;;;2051185;28;20223;-74
2022/09/29 05:09:50;;;;;;;2.60;2.40;;;;;19.50;98946.00;;;;2050813;28;20391;-74
2022/09/29 05:10:51;;;;;;;3.33;2.40;;;;;19.50;98940.00;;;;2051370;28;20223;-74
2022/09/29 05:11:51;;;;;;;3.40;2.47;;;;;19.50;98954.00;;;;2050561;28;20236;-74
2022/09/29 05:12:51;;;;;;;2.93;2.43;;;;;19.50;98953.00;;;;2051254;28;20228;-74
2022/09/29 05:13:52;;;;;;;2.70;2.50;;;;;19.50;98947.00;;;;2052014;28;20220;-75
2022/09/29 05:14:52;;;;;;;2.47;2.27;;;;;19.50;98957.00;;;;2051461;28;20267;-74
2022/09/29 05:15:56;;;;;;;3.47;2.50;;;;;19.50;98951.00;;;;2051398;28;21003;-74
2022/09/29 05:16:56;;;;;;;3.65;2.45;;;;;19.50;98951.00;;;;2051916;28;20216;-75
2022/09/29 05:18:00;;;;;;;2.60;2.40;;;;;19.50;98953.00;;;;2052137;28;20220;-74
2022/09/29 05:19:00;;;;;;;3.97;2.80;;;;;19.50;98961.00;;;;2049050;28;20303;-75
2022/09/29 05:20:01;;;;;;;3.53;2.47;;;;;19.50;98968.00;;;;2051689;28;20215;-74